createdAt,value
2017-01-21T00:01:09.348Z,0
2017-01-21T00:02:20.751Z,0
2017-01-21T00:03:32.142Z,0
2017-01-21T00:04:43.587Z,0
2017-01-21T00:05:54.980Z,0
2017-01-21T00:07:06.377Z,0
2017-01-21T00:08:17.776Z,0
2017-01-21T00:09:29.164Z,0
2017-01-21T00:10:40.615Z,0
2017-01-21T00:11:52.016Z,0
2017-01-21T00:13:03.414Z,0
2017-01-21T00:14:14.798Z,0
2017-01-21T00:15:26.194Z,0
2017-01-21T00:16:37.642Z,0
2017-01-21T00:17:49.041Z,0
2017-01-21T00:19:00.432Z,0
2017-01-21T00:20:11.847Z,0
2017-01-21T00:21:23.239Z,0
2017-01-21T00:22:34.684Z,0
2017-01-21T00:23:46.085Z,0
2017-01-21T00:24:57.694Z,0
2017-01-21T00:26:09.091Z,0
2017-01-21T00:27:20.485Z,0
2017-01-21T00:28:32.128Z,0
2017-01-21T00:29:43.526Z,0
2017-01-21T00:30:54.920Z,0
2017-01-21T00:32:06.324Z,0
2017-01-21T00:33:17.718Z,0
2017-01-21T00:34:29.164Z,0
2017-01-21T00:35:40.573Z,0
2017-01-21T00:36:51.971Z,0
2017-01-21T00:38:03.370Z,0
2017-01-21T00:39:14.969Z,0
2017-01-21T00:40:26.405Z,0
2017-01-21T00:41:37.803Z,0
2017-01-21T00:42:49.204Z,0
2017-01-21T00:44:00.599Z,0
2017-01-21T00:45:11.995Z,0
2017-01-21T00:46:23.435Z,0
2017-01-21T00:47:34.831Z,0
2017-01-21T00:48:46.226Z,0
2017-01-21T00:49:57.620Z,0
2017-01-21T00:51:09.014Z,0
2017-01-21T00:52:20.462Z,0
2017-01-21T00:53:32.061Z,0
2017-01-21T00:54:43.457Z,0
2017-01-21T00:55:54.857Z,0
2017-01-21T00:57:06.251Z,0
2017-01-21T00:58:17.696Z,0
2017-01-21T00:59:29.093Z,0
2017-01-21T01:00:40.684Z,0
2017-01-21T01:01:52.078Z,0
2017-01-21T01:03:03.485Z,0
2017-01-21T01:04:14.933Z,0
2017-01-21T01:05:26.330Z,0
2017-01-21T01:06:37.721Z,0
2017-01-21T01:07:49.114Z,0
2017-01-21T01:09:00.509Z,0
2017-01-21T01:10:11.957Z,0
2017-01-21T01:11:23.370Z,0
2017-01-21T01:12:34.767Z,0
2017-01-21T01:13:46.170Z,0
2017-01-21T01:14:57.570Z,0
2017-01-21T01:16:09.013Z,0
2017-01-21T01:17:20.420Z,0
2017-01-21T01:18:31.803Z,0
2017-01-21T01:19:43.191Z,0
2017-01-21T01:20:54.586Z,0
2017-01-21T01:22:06.238Z,0
2017-01-21T01:23:17.626Z,0
2017-01-21T01:24:29.020Z,0
2017-01-21T01:25:40.612Z,0
2017-01-21T01:26:52.211Z,0
2017-01-21T01:28:03.862Z,0
2017-01-21T01:29:15.262Z,0
2017-01-21T01:30:26.648Z,0
2017-01-21T01:31:38.271Z,0
2017-01-21T01:32:49.667Z,0
2017-01-21T01:34:01.114Z,0
2017-01-21T01:35:12.505Z,0
2017-01-21T01:36:23.899Z,0
2017-01-21T01:37:35.291Z,0
2017-01-21T01:38:46.683Z,0
2017-01-21T01:39:58.119Z,0
2017-01-21T01:41:09.518Z,0
2017-01-21T01:42:20.944Z,0
2017-01-21T01:43:32.339Z,0
2017-01-21T01:44:43.731Z,0
2017-01-21T01:45:55.199Z,0
2017-01-21T01:47:06.601Z,0
2017-01-21T01:48:18.010Z,0
2017-01-21T01:49:29.406Z,0
2017-01-21T01:50:41.009Z,0
2017-01-21T01:51:52.455Z,0
2017-01-21T01:53:03.851Z,0
2017-01-21T01:54:15.237Z,0
2017-01-21T01:55:26.638Z,0
2017-01-21T01:56:38.234Z,0
2017-01-21T01:57:49.681Z,0
2017-01-21T01:59:01.073Z,0
2017-01-21T02:00:12.459Z,0
2017-01-21T02:01:23.879Z,0
2017-01-21T02:02:35.272Z,0
2017-01-21T02:03:46.720Z,0
2017-01-21T02:04:58.113Z,0
2017-01-21T02:06:09.499Z,0
2017-01-21T02:07:20.894Z,0
2017-01-21T02:08:32.293Z,0
2017-01-21T02:09:43.740Z,0
2017-01-21T02:10:55.141Z,0
2017-01-21T02:12:06.734Z,0
2017-01-21T02:13:18.153Z,0
2017-01-21T02:14:29.542Z,0
2017-01-21T02:15:41.189Z,0
2017-01-21T02:16:52.585Z,0
2017-01-21T02:18:03.979Z,0
2017-01-21T02:19:15.373Z,0
2017-01-21T02:20:26.770Z,0
2017-01-21T02:21:38.215Z,0
2017-01-21T02:22:49.613Z,0
2017-01-21T02:24:01.205Z,0
2017-01-21T02:25:12.605Z,0
2017-01-21T02:26:24.003Z,0
2017-01-21T02:27:35.449Z,0
2017-01-21T02:28:46.845Z,0
2017-01-21T02:29:58.246Z,0
2017-01-21T02:31:09.637Z,0
2017-01-21T02:32:21.232Z,0
2017-01-21T02:33:32.884Z,0
2017-01-21T02:34:44.279Z,0
2017-01-21T02:35:55.666Z,0
2017-01-21T02:37:07.263Z,0
2017-01-21T02:38:18.648Z,0
2017-01-21T02:39:30.485Z,0
2017-01-21T02:40:41.886Z,0
2017-01-21T02:41:53.283Z,0
2017-01-21T02:43:04.879Z,0
2017-01-21T02:44:16.277Z,0
2017-01-21T02:45:27.719Z,0
2017-01-21T02:46:39.315Z,0
2017-01-21T02:47:50.714Z,0
2017-01-21T02:49:02.109Z,0
2017-01-21T02:50:13.707Z,0
2017-01-21T02:51:25.346Z,0
2017-01-21T02:52:36.741Z,0
2017-01-21T02:53:48.130Z,0
2017-01-21T02:54:59.525Z,0
2017-01-21T02:56:10.922Z,0
2017-01-21T02:57:22.371Z,0
2017-01-21T02:58:33.765Z,0
2017-01-21T02:59:45.555Z,0
2017-01-21T03:00:56.956Z,0
2017-01-21T03:02:08.347Z,0
2017-01-21T03:03:19.782Z,0
2017-01-21T03:04:31.177Z,0
2017-01-21T03:05:42.595Z,0
2017-01-21T03:06:53.993Z,0
2017-01-21T03:08:05.399Z,0
2017-01-21T03:09:16.842Z,0
2017-01-21T03:10:28.446Z,0
2017-01-21T03:11:39.853Z,0
2017-01-21T03:12:51.250Z,0
2017-01-21T03:14:02.652Z,0
2017-01-21T03:15:14.100Z,0
2017-01-21T03:16:25.494Z,0
2017-01-21T03:17:36.890Z,0
2017-01-21T03:18:48.283Z,0
2017-01-21T03:19:59.678Z,0
2017-01-21T03:21:11.125Z,0
2017-01-21T03:22:22.513Z,0
2017-01-21T03:23:33.913Z,0
2017-01-21T03:24:45.305Z,0
2017-01-21T03:25:56.693Z,0
2017-01-21T03:27:08.144Z,0
2017-01-21T03:28:19.540Z,0
2017-01-21T03:29:30.925Z,0
2017-01-21T03:30:42.515Z,0
2017-01-21T03:31:53.904Z,0
2017-01-21T03:33:05.345Z,0
2017-01-21T03:34:16.750Z,0
2017-01-21T03:35:28.154Z,0
2017-01-21T03:36:39.548Z,0
2017-01-21T03:37:50.948Z,0
2017-01-21T03:39:02.390Z,0
2017-01-21T03:40:13.792Z,0
2017-01-21T03:41:25.183Z,0
2017-01-21T03:42:36.583Z,0
2017-01-21T03:43:47.985Z,0
2017-01-21T03:44:59.431Z,0
2017-01-21T03:46:10.848Z,0
2017-01-21T03:47:22.245Z,0
2017-01-21T03:48:33.635Z,0
2017-01-21T03:49:45.025Z,0
2017-01-21T03:50:56.472Z,0
2017-01-21T03:52:07.861Z,0
2017-01-21T03:53:19.245Z,0
2017-01-21T03:54:30.642Z,0
2017-01-21T03:55:42.036Z,0
2017-01-21T03:56:53.475Z,0
2017-01-21T03:58:05.063Z,0
2017-01-21T03:59:16.462Z,0
2017-01-21T04:00:27.857Z,0
2017-01-21T04:01:39.254Z,0
2017-01-21T04:02:50.696Z,0
2017-01-21T04:04:02.087Z,0
2017-01-21T04:05:13.474Z,0
2017-01-21T04:06:24.873Z,0
2017-01-21T04:07:36.464Z,0
2017-01-21T04:08:47.921Z,0
2017-01-21T04:09:59.317Z,0
2017-01-21T04:11:10.741Z,0
2017-01-21T04:12:22.135Z,0
2017-01-21T04:13:33.528Z,0
2017-01-21T04:14:44.973Z,0
2017-01-21T04:15:56.371Z,0
2017-01-21T04:17:07.962Z,0
2017-01-21T04:18:19.553Z,0
2017-01-21T04:19:30.950Z,0
2017-01-21T04:20:42.588Z,0
2017-01-21T04:21:54.176Z,0
2017-01-21T04:23:05.574Z,0
2017-01-21T04:24:16.974Z,0
2017-01-21T04:25:28.372Z,0
2017-01-21T04:26:40.018Z,0
2017-01-21T04:27:51.406Z,0
2017-01-21T04:29:03.003Z,0
2017-01-21T04:30:14.595Z,0
2017-01-21T04:31:25.982Z,0
2017-01-21T04:32:37.631Z,0
2017-01-21T04:33:49.020Z,0
2017-01-21T04:35:00.413Z,0
2017-01-21T04:36:11.827Z,0
2017-01-21T04:37:23.218Z,0
2017-01-21T04:38:34.664Z,0
2017-01-21T04:39:46.456Z,0
2017-01-21T04:40:57.855Z,0
2017-01-21T04:42:09.251Z,0
2017-01-21T04:43:20.641Z,0
2017-01-21T04:44:32.080Z,0
2017-01-21T04:45:43.469Z,0
2017-01-21T04:46:54.864Z,0
2017-01-21T04:48:06.284Z,0
2017-01-21T04:49:17.675Z,0
2017-01-21T04:50:29.121Z,0
2017-01-21T04:51:40.510Z,0
2017-01-21T04:52:51.900Z,0
2017-01-21T04:54:03.315Z,0
2017-01-21T04:55:14.706Z,0
2017-01-21T04:56:26.149Z,0
2017-01-21T04:57:37.544Z,0
2017-01-21T04:58:48.939Z,0
2017-01-21T05:00:00.332Z,0
2017-01-21T05:01:11.736Z,0
2017-01-21T05:02:23.189Z,0
2017-01-21T05:03:34.581Z,0
2017-01-21T05:04:45.976Z,0
2017-01-21T05:05:57.570Z,0
2017-01-21T05:07:08.956Z,0
2017-01-21T05:08:20.394Z,0
2017-01-21T05:09:31.992Z,0
2017-01-21T05:10:43.584Z,0
2017-01-21T05:11:54.977Z,0
2017-01-21T05:13:06.370Z,0
2017-01-21T05:14:17.812Z,0
2017-01-21T05:15:29.206Z,0
2017-01-21T05:16:40.602Z,0
2017-01-21T05:17:52.217Z,0
2017-01-21T05:19:03.612Z,0
2017-01-21T05:20:15.056Z,0
2017-01-21T05:21:26.465Z,0
2017-01-21T05:22:37.862Z,0
2017-01-21T05:23:49.251Z,0
2017-01-21T05:25:00.649Z,0
2017-01-21T05:26:12.091Z,0
2017-01-21T05:27:23.487Z,0
2017-01-21T05:28:34.878Z,0
2017-01-21T05:29:46.498Z,0
2017-01-21T05:30:57.891Z,0
2017-01-21T05:32:09.332Z,0
2017-01-21T05:33:20.717Z,0
2017-01-21T05:34:32.113Z,0
2017-01-21T05:35:43.498Z,0
2017-01-21T05:36:55.090Z,0
2017-01-21T05:38:06.531Z,0
2017-01-21T05:39:17.925Z,0
2017-01-21T05:40:29.318Z,0
2017-01-21T05:41:40.716Z,0
2017-01-21T05:42:52.109Z,0
2017-01-21T05:44:03.550Z,0
2017-01-21T05:45:14.939Z,0
2017-01-21T05:46:26.324Z,0
2017-01-21T05:47:37.711Z,0
2017-01-21T05:48:49.101Z,0
2017-01-21T05:50:00.545Z,0
2017-01-21T05:51:11.935Z,0
2017-01-21T05:52:23.329Z,0
2017-01-21T05:53:35.126Z,0
2017-01-21T05:54:46.522Z,0
2017-01-21T05:55:57.967Z,0
2017-01-21T05:57:09.365Z,0
2017-01-21T05:58:20.752Z,0
2017-01-21T05:59:32.152Z,0
2017-01-21T06:00:43.745Z,0
2017-01-21T06:01:55.190Z,0
2017-01-21T06:03:06.783Z,0
2017-01-21T06:04:18.177Z,0
2017-01-21T06:05:29.574Z,0
2017-01-21T06:06:40.973Z,0
2017-01-21T06:07:52.617Z,0
2017-01-21T06:09:04.009Z,0
2017-01-21T06:10:15.399Z,0
2017-01-21T06:11:26.990Z,0
2017-01-21T06:12:38.383Z,0
2017-01-21T06:13:49.825Z,0
2017-01-21T06:15:01.216Z,0
2017-01-21T06:16:12.808Z,0
2017-01-21T06:17:24.207Z,0
2017-01-21T06:18:35.611Z,0
2017-01-21T06:19:47.083Z,0
2017-01-21T06:20:58.488Z,0
2017-01-21T06:22:09.880Z,0
2017-01-21T06:23:21.268Z,0
2017-01-21T06:24:32.860Z,0
2017-01-21T06:25:44.301Z,0
2017-01-21T06:26:55.697Z,0
2017-01-21T06:28:07.084Z,0
2017-01-21T06:29:18.486Z,0
2017-01-21T06:30:29.872Z,0
2017-01-21T06:31:41.312Z,0
2017-01-21T06:32:52.704Z,0
2017-01-21T06:34:04.096Z,0
2017-01-21T06:35:15.486Z,0
2017-01-21T06:36:26.884Z,0
2017-01-21T06:37:38.323Z,0
2017-01-21T06:38:49.717Z,0
2017-01-21T06:40:01.108Z,0
2017-01-21T06:41:12.497Z,0
2017-01-21T06:42:23.886Z,0
2017-01-21T06:43:35.323Z,0
2017-01-21T06:44:46.721Z,0
2017-01-21T06:45:58.124Z,0
2017-01-21T06:47:09.517Z,0
2017-01-21T06:48:20.912Z,0
2017-01-21T06:49:32.358Z,0
2017-01-21T06:50:43.751Z,0
2017-01-21T06:51:55.188Z,0
2017-01-21T06:53:06.583Z,0
2017-01-21T06:54:17.974Z,0
2017-01-21T06:55:29.417Z,0
2017-01-21T06:56:40.811Z,0
2017-01-21T06:57:52.210Z,0
2017-01-21T06:59:03.602Z,0
2017-01-21T07:00:14.987Z,0
2017-01-21T07:01:26.436Z,0
2017-01-21T07:02:37.827Z,0
2017-01-21T07:03:49.435Z,0
2017-01-21T07:05:00.832Z,0
2017-01-21T07:06:12.431Z,0
2017-01-21T07:07:24.079Z,5
2017-01-21T07:08:35.487Z,5
2017-01-21T07:09:46.890Z,5
2017-01-21T07:10:58.287Z,5
2017-01-21T07:12:09.680Z,5
2017-01-21T07:13:21.122Z,5
2017-01-21T07:14:32.512Z,10
2017-01-21T07:15:43.902Z,10
2017-01-21T07:16:55.297Z,10
2017-01-21T07:18:06.884Z,10
2017-01-21T07:19:18.524Z,10
2017-01-21T07:20:29.929Z,15
2017-01-21T07:21:41.530Z,15
2017-01-21T07:22:52.924Z,15
2017-01-21T07:24:04.318Z,15
2017-01-21T07:25:15.762Z,20
2017-01-21T07:26:27.364Z,20
2017-01-21T07:27:38.760Z,25
2017-01-21T07:28:50.149Z,25
2017-01-21T07:30:01.542Z,25
2017-01-21T07:31:12.978Z,30
2017-01-21T07:32:24.376Z,30
2017-01-21T07:33:35.779Z,35
2017-01-21T07:34:47.181Z,35
2017-01-21T07:35:58.580Z,40
2017-01-21T07:37:10.022Z,40
2017-01-21T07:38:21.614Z,45
2017-01-21T07:39:33.006Z,45
2017-01-21T07:40:44.400Z,50
2017-01-21T07:41:55.802Z,50
2017-01-21T07:43:07.254Z,55
2017-01-21T07:44:18.842Z,60
2017-01-21T07:45:30.233Z,60
2017-01-21T07:46:41.633Z,65
2017-01-21T07:47:53.026Z,70
2017-01-21T07:49:04.427Z,70
2017-01-21T07:50:15.813Z,75
2017-01-21T07:51:27.208Z,80
2017-01-21T07:52:38.612Z,80
2017-01-21T07:53:50.052Z,85
2017-01-21T07:55:01.445Z,85
2017-01-21T07:56:12.842Z,90
2017-01-21T07:57:24.236Z,90
2017-01-21T07:58:35.633Z,105
2017-01-21T07:59:47.078Z,115
2017-01-21T08:00:58.469Z,105
2017-01-21T08:02:09.866Z,105
2017-01-21T08:03:21.660Z,110
2017-01-21T08:04:33.258Z,120
2017-01-21T08:05:44.903Z,135
2017-01-21T08:06:56.702Z,155
2017-01-21T08:08:08.303Z,165
2017-01-21T08:09:19.705Z,195
2017-01-21T08:10:31.104Z,205
2017-01-21T08:11:42.549Z,190
2017-01-21T08:12:53.947Z,230
2017-01-21T08:14:05.340Z,280
2017-01-21T08:15:16.771Z,310
2017-01-21T08:16:28.367Z,335
2017-01-21T08:17:39.818Z,470
2017-01-21T08:18:51.414Z,450
2017-01-21T08:20:02.804Z,255
2017-01-21T08:21:14.200Z,200
2017-01-21T08:22:25.801Z,260
2017-01-21T08:23:37.246Z,290
2017-01-21T08:24:48.646Z,220
2017-01-21T08:26:00.039Z,200
2017-01-21T08:27:11.439Z,180
2017-01-21T08:28:22.831Z,220
2017-01-21T08:29:34.480Z,255
2017-01-21T08:30:45.876Z,345
2017-01-21T08:31:57.275Z,450
2017-01-21T08:33:08.865Z,420
2017-01-21T08:34:20.256Z,395
2017-01-21T08:35:31.709Z,420
2017-01-21T08:36:43.102Z,420
2017-01-21T08:37:54.487Z,455
2017-01-21T08:39:05.885Z,485
2017-01-21T08:40:17.286Z,425
2017-01-21T08:41:28.740Z,435
2017-01-21T08:42:40.142Z,465
2017-01-21T08:43:51.939Z,545
2017-01-21T08:45:03.341Z,650
2017-01-21T08:46:14.746Z,780
2017-01-21T08:47:26.220Z,800
2017-01-21T08:48:37.818Z,840
2017-01-21T08:49:49.213Z,840
2017-01-21T08:51:00.612Z,645
2017-01-21T08:52:12.038Z,455
2017-01-21T08:53:23.502Z,300
2017-01-21T08:54:34.896Z,340
2017-01-21T08:55:46.499Z,725
2017-01-21T08:56:57.899Z,800
2017-01-21T08:58:09.291Z,825
2017-01-21T08:59:20.942Z,880
2017-01-21T09:00:32.360Z,935
2017-01-21T09:01:43.789Z,1160
2017-01-21T09:02:55.192Z,1365
2017-01-21T09:04:06.789Z,1485
2017-01-21T09:05:18.243Z,1310
2017-01-21T09:06:29.649Z,1265
2017-01-21T09:07:41.054Z,1290
2017-01-21T09:08:52.451Z,1050
2017-01-21T09:10:03.851Z,840
2017-01-21T09:11:15.310Z,765
2017-01-21T09:12:26.719Z,735
2017-01-21T09:13:38.122Z,775
2017-01-21T09:14:49.527Z,1210
2017-01-21T09:16:00.926Z,1635
2017-01-21T09:17:12.381Z,1740
2017-01-21T09:18:23.779Z,1685
2017-01-21T09:19:35.187Z,1685
2017-01-21T09:20:46.587Z,1480
2017-01-21T09:21:57.996Z,1380
2017-01-21T09:23:09.456Z,1630
2017-01-21T09:24:20.865Z,1970
2017-01-21T09:25:32.274Z,2000
2017-01-21T09:26:43.688Z,2030
2017-01-21T09:27:55.122Z,2080
2017-01-21T09:29:06.580Z,2125
2017-01-21T09:30:17.986Z,2090
2017-01-21T09:31:29.402Z,1950
2017-01-21T09:32:40.821Z,1955
2017-01-21T09:33:52.242Z,2075
2017-01-21T09:35:03.696Z,2130
2017-01-21T09:36:15.308Z,2330
2017-01-21T09:37:26.717Z,2275
2017-01-21T09:38:38.327Z,2040
2017-01-21T09:39:49.733Z,2100
2017-01-21T09:41:01.600Z,2085
2017-01-21T09:42:13.211Z,2150
2017-01-21T09:43:24.617Z,2165
2017-01-21T09:44:36.034Z,2125
2017-01-21T09:45:47.446Z,2175
2017-01-21T09:46:58.932Z,2105
2017-01-21T09:48:10.355Z,2095
2017-01-21T09:49:21.768Z,2170
2017-01-21T09:50:33.394Z,2135
2017-01-21T09:51:44.802Z,2065
2017-01-21T09:52:56.259Z,2015
2017-01-21T09:54:07.677Z,1920
2017-01-21T09:55:19.095Z,2100
2017-01-21T09:56:30.709Z,2245
2017-01-21T09:57:42.521Z,2175
2017-01-21T09:58:53.979Z,2105
2017-01-21T10:00:05.400Z,2180
2017-01-21T10:01:16.812Z,2115
2017-01-21T10:02:28.429Z,2170
2017-01-21T10:03:39.849Z,2250
2017-01-21T10:04:51.322Z,2075
2017-01-21T10:06:02.942Z,2080
2017-01-21T10:07:14.566Z,2210
2017-01-21T10:08:25.984Z,2155
2017-01-21T10:09:37.416Z,2155
2017-01-21T10:10:48.878Z,2180
2017-01-21T10:12:00.293Z,2195
2017-01-21T10:13:11.715Z,2170
2017-01-21T10:14:23.135Z,2170
2017-01-21T10:15:34.742Z,2250
2017-01-21T10:16:46.211Z,2205
2017-01-21T10:17:57.829Z,2165
2017-01-21T10:19:09.246Z,2165
2017-01-21T10:20:20.659Z,2195
2017-01-21T10:21:32.072Z,2215
2017-01-21T10:22:43.540Z,2155
2017-01-21T10:23:54.957Z,2110
2017-01-21T10:25:06.373Z,2135
2017-01-21T10:26:17.785Z,2175
2017-01-21T10:27:29.405Z,2195
2017-01-21T10:28:40.883Z,2260
2017-01-21T10:29:52.709Z,2180
2017-01-21T10:31:04.129Z,2060
2017-01-21T10:32:15.539Z,2150
2017-01-21T10:33:27.164Z,2075
2017-01-21T10:34:38.627Z,2070
2017-01-21T10:35:50.078Z,2070
2017-01-21T10:37:01.495Z,2090
2017-01-21T10:38:12.908Z,2125
2017-01-21T10:39:24.327Z,2310
2017-01-21T10:40:35.795Z,2240
2017-01-21T10:41:47.220Z,2045
2017-01-21T10:42:58.640Z,2050
2017-01-21T10:44:10.067Z,2065
2017-01-21T10:45:21.486Z,2065
2017-01-21T10:46:33.148Z,2080
2017-01-21T10:47:44.563Z,2045
2017-01-21T10:48:55.988Z,2060
2017-01-21T10:50:07.609Z,2080
2017-01-21T10:51:19.026Z,2085
2017-01-21T10:52:30.493Z,2115
2017-01-21T10:53:41.903Z,2085
2017-01-21T10:54:53.321Z,2060
2017-01-21T10:56:04.942Z,1990
2017-01-21T10:57:16.367Z,1875
2017-01-21T10:58:27.833Z,1945
2017-01-21T10:59:39.263Z,1940
2017-01-21T11:00:50.689Z,1950
2017-01-21T11:02:02.108Z,1925
2017-01-21T11:03:13.723Z,1875
2017-01-21T11:04:25.386Z,1925
2017-01-21T11:05:37.007Z,1965
2017-01-21T11:06:48.425Z,1940
2017-01-21T11:07:59.839Z,1910
2017-01-21T11:09:11.255Z,1960
2017-01-21T11:10:22.710Z,1870
2017-01-21T11:11:34.148Z,1905
2017-01-21T11:12:45.559Z,2015
2017-01-21T11:13:57.184Z,1850
2017-01-21T11:15:08.606Z,1825
2017-01-21T11:16:20.063Z,1790
2017-01-21T11:17:31.542Z,1825
2017-01-21T11:18:43.157Z,1810
2017-01-21T11:19:54.573Z,1755
2017-01-21T11:21:05.986Z,1750
2017-01-21T11:22:17.454Z,1620
2017-01-21T11:23:29.073Z,1590
2017-01-21T11:24:40.691Z,1470
2017-01-21T11:25:52.121Z,1275
2017-01-21T11:27:03.744Z,1400
2017-01-21T11:28:15.220Z,1470
2017-01-21T11:29:26.631Z,1450
2017-01-21T11:30:38.041Z,1335
2017-01-21T11:31:49.448Z,1465
2017-01-21T11:33:00.859Z,1455
2017-01-21T11:34:12.521Z,1430
2017-01-21T11:35:23.935Z,1080
2017-01-21T11:36:35.346Z,800
2017-01-21T11:37:46.767Z,545
2017-01-21T11:38:58.180Z,770
2017-01-21T11:40:09.653Z,900
2017-01-21T11:41:21.061Z,835
2017-01-21T11:42:32.467Z,750
2017-01-21T11:43:43.882Z,690
2017-01-21T11:44:55.300Z,770
2017-01-21T11:46:06.759Z,1090
2017-01-21T11:47:18.360Z,1135
2017-01-21T11:48:29.783Z,985
2017-01-21T11:49:41.184Z,565
2017-01-21T11:50:52.591Z,500
2017-01-21T11:52:04.250Z,730
2017-01-21T11:53:15.653Z,1100
2017-01-21T11:54:27.060Z,940
2017-01-21T11:55:38.677Z,825
2017-01-21T11:56:50.279Z,905
2017-01-21T11:58:01.739Z,995
2017-01-21T11:59:13.145Z,930
2017-01-21T12:00:24.556Z,1125
2017-01-21T12:01:35.956Z,1270
2017-01-21T12:02:47.372Z,1110
2017-01-21T12:03:58.841Z,1195
2017-01-21T12:05:10.451Z,1205
2017-01-21T12:06:21.857Z,1270
2017-01-21T12:07:33.265Z,1290
2017-01-21T12:08:44.669Z,1305
2017-01-21T12:09:56.165Z,1210
2017-01-21T12:11:07.597Z,1265
2017-01-21T12:12:19.003Z,1125
2017-01-21T12:13:30.417Z,835
2017-01-21T12:14:42.028Z,705
2017-01-21T12:15:53.487Z,775
2017-01-21T12:17:05.103Z,895
2017-01-21T12:18:16.718Z,565
2017-01-21T12:19:28.120Z,355
2017-01-21T12:20:39.558Z,710
2017-01-21T12:21:51.021Z,540
2017-01-21T12:23:02.436Z,495
2017-01-21T12:24:13.849Z,575
2017-01-21T12:25:25.263Z,510
2017-01-21T12:26:36.662Z,620
2017-01-21T12:27:48.120Z,910
2017-01-21T12:28:59.728Z,1030
2017-01-21T12:30:11.135Z,965
2017-01-21T12:31:22.545Z,830
2017-01-21T12:32:33.956Z,775
2017-01-21T12:33:45.414Z,760
2017-01-21T12:34:56.809Z,825
2017-01-21T12:36:08.221Z,915
2017-01-21T12:37:19.634Z,885
2017-01-21T12:38:31.043Z,480
2017-01-21T12:39:42.497Z,570
2017-01-21T12:40:54.307Z,920
2017-01-21T12:42:05.733Z,950
2017-01-21T12:43:17.346Z,895
2017-01-21T12:44:28.754Z,680
2017-01-21T12:45:40.214Z,440
2017-01-21T12:46:51.623Z,505
2017-01-21T12:48:03.034Z,850
2017-01-21T12:49:14.437Z,960
2017-01-21T12:50:26.050Z,885
2017-01-21T12:51:37.505Z,910
2017-01-21T12:52:48.912Z,915
2017-01-21T12:54:00.318Z,835
2017-01-21T12:55:11.721Z,805
2017-01-21T12:56:23.127Z,845
2017-01-21T12:57:34.583Z,775
2017-01-21T12:58:45.998Z,740
2017-01-21T12:59:57.603Z,820
2017-01-21T13:01:09.004Z,805
2017-01-21T13:02:20.409Z,700
2017-01-21T13:03:31.892Z,645
2017-01-21T13:04:43.297Z,675
2017-01-21T13:05:54.704Z,615
2017-01-21T13:07:06.312Z,580
2017-01-21T13:08:17.947Z,665
2017-01-21T13:09:29.402Z,725
2017-01-21T13:10:40.815Z,735
2017-01-21T13:11:52.224Z,670
2017-01-21T13:13:03.631Z,575
2017-01-21T13:14:15.040Z,550
2017-01-21T13:15:26.494Z,485
2017-01-21T13:16:37.896Z,435
2017-01-21T13:17:49.304Z,605
2017-01-21T13:19:00.714Z,530
2017-01-21T13:20:12.118Z,335
2017-01-21T13:21:23.582Z,370
2017-01-21T13:22:34.992Z,460
2017-01-21T13:23:46.593Z,375
2017-01-21T13:24:57.996Z,400
2017-01-21T13:26:09.405Z,420
2017-01-21T13:27:21.064Z,405
2017-01-21T13:28:32.477Z,415
2017-01-21T13:29:43.888Z,465
2017-01-21T13:30:55.302Z,480
2017-01-21T13:32:06.704Z,485
2017-01-21T13:33:18.361Z,500
2017-01-21T13:34:29.795Z,450
2017-01-21T13:35:41.397Z,430
2017-01-21T13:36:52.804Z,340
2017-01-21T13:38:04.210Z,390
2017-01-21T13:39:15.674Z,375
2017-01-21T13:40:27.083Z,300
2017-01-21T13:41:38.690Z,390
2017-01-21T13:42:50.098Z,390
2017-01-21T13:44:01.503Z,400
2017-01-21T13:45:13.159Z,390
2017-01-21T13:46:24.562Z,370
2017-01-21T13:47:35.966Z,310
2017-01-21T13:48:47.373Z,345
2017-01-21T13:49:58.975Z,335
2017-01-21T13:51:10.623Z,300
2017-01-21T13:52:22.027Z,235
2017-01-21T13:53:33.432Z,235
2017-01-21T13:54:44.847Z,280
2017-01-21T13:55:56.449Z,250
2017-01-21T13:57:07.900Z,260
2017-01-21T13:58:19.306Z,305
2017-01-21T13:59:30.713Z,295
2017-01-21T14:00:42.120Z,235
2017-01-21T14:01:53.525Z,170
2017-01-21T14:03:04.984Z,165
2017-01-21T14:04:16.395Z,165
2017-01-21T14:05:27.795Z,160
2017-01-21T14:06:39.194Z,195
2017-01-21T14:07:50.621Z,245
2017-01-21T14:09:02.078Z,240
2017-01-21T14:10:13.482Z,225
2017-01-21T14:11:24.896Z,205
2017-01-21T14:12:36.297Z,205
2017-01-21T14:13:47.702Z,205
2017-01-21T14:14:59.146Z,185
2017-01-21T14:16:10.552Z,170
2017-01-21T14:17:21.951Z,165
2017-01-21T14:18:33.553Z,170
2017-01-21T14:19:44.959Z,165
2017-01-21T14:20:56.410Z,165
2017-01-21T14:22:07.814Z,150
2017-01-21T14:23:19.418Z,140
2017-01-21T14:24:30.824Z,145
2017-01-21T14:25:42.433Z,140
2017-01-21T14:26:53.906Z,140
2017-01-21T14:28:05.327Z,140
2017-01-21T14:29:16.731Z,140
2017-01-21T14:30:28.132Z,140
2017-01-21T14:31:39.537Z,135
2017-01-21T14:32:50.997Z,135
2017-01-21T14:34:02.399Z,130
2017-01-21T14:35:13.802Z,135
2017-01-21T14:36:25.204Z,130
2017-01-21T14:37:36.609Z,130
2017-01-21T14:38:48.273Z,125
2017-01-21T14:39:59.678Z,125
2017-01-21T14:41:11.082Z,120
2017-01-21T14:42:22.692Z,120
2017-01-21T14:43:34.294Z,120
2017-01-21T14:44:45.951Z,115
2017-01-21T14:45:57.347Z,115
2017-01-21T14:47:08.749Z,115
2017-01-21T14:48:20.150Z,110
2017-01-21T14:49:31.550Z,110
2017-01-21T14:50:43.000Z,110
2017-01-21T14:51:54.605Z,105
2017-01-21T14:53:06.002Z,105
2017-01-21T14:54:17.410Z,105
2017-01-21T14:55:28.807Z,100
2017-01-21T14:56:40.259Z,100
2017-01-21T14:57:51.656Z,100
2017-01-21T14:59:03.263Z,95
2017-01-21T15:00:14.666Z,95
2017-01-21T15:01:26.071Z,95
2017-01-21T15:02:37.931Z,90
2017-01-21T15:03:49.330Z,90
2017-01-21T15:05:00.730Z,90
2017-01-21T15:06:12.127Z,85
2017-01-21T15:07:23.527Z,85
2017-01-21T15:08:35.174Z,85
2017-01-21T15:09:46.565Z,85
2017-01-21T15:10:57.970Z,85
2017-01-21T15:12:09.381Z,80
2017-01-21T15:13:20.782Z,80
2017-01-21T15:14:32.431Z,75
2017-01-21T15:15:44.030Z,80
2017-01-21T15:16:55.437Z,75
2017-01-21T15:18:06.842Z,70
2017-01-21T15:19:18.236Z,70
2017-01-21T15:20:29.881Z,65
2017-01-21T15:21:41.279Z,65
2017-01-21T15:22:52.675Z,65
2017-01-21T15:24:04.078Z,60
2017-01-21T15:25:15.485Z,60
2017-01-21T15:26:26.942Z,55
2017-01-21T15:27:38.537Z,55
2017-01-21T15:28:49.943Z,50
2017-01-21T15:30:01.345Z,50
2017-01-21T15:31:12.743Z,45
2017-01-21T15:32:24.183Z,45
2017-01-21T15:33:35.791Z,40
2017-01-21T15:34:47.200Z,40
2017-01-21T15:35:58.791Z,40
2017-01-21T15:37:10.191Z,40
2017-01-21T15:38:21.632Z,40
2017-01-21T15:39:33.028Z,35
2017-01-21T15:40:44.427Z,35
2017-01-21T15:41:55.825Z,30
2017-01-21T15:43:07.422Z,30
2017-01-21T15:44:18.870Z,25
2017-01-21T15:45:30.475Z,25
2017-01-21T15:46:41.876Z,20
2017-01-21T15:47:53.276Z,20
2017-01-21T15:49:04.872Z,20
2017-01-21T15:50:16.318Z,15
2017-01-21T15:51:27.718Z,15
2017-01-21T15:52:39.122Z,15
2017-01-21T15:53:50.519Z,15
2017-01-21T15:55:01.912Z,10
2017-01-21T15:56:13.363Z,10
2017-01-21T15:57:24.758Z,10
2017-01-21T15:58:36.158Z,10
2017-01-21T15:59:47.558Z,10
2017-01-21T16:00:59.170Z,5
2017-01-21T16:02:10.625Z,5
2017-01-21T16:03:22.024Z,5
2017-01-21T16:04:33.619Z,5
2017-01-21T16:05:45.016Z,5
2017-01-21T16:06:56.409Z,5
2017-01-21T16:08:07.877Z,0
2017-01-21T16:09:19.280Z,0
2017-01-21T16:10:30.679Z,0
2017-01-21T16:11:42.079Z,0
2017-01-21T16:12:53.488Z,0
2017-01-21T16:14:04.942Z,0
2017-01-21T16:15:16.341Z,0
2017-01-21T16:16:27.749Z,0
2017-01-21T16:17:39.146Z,0
2017-01-21T16:18:50.750Z,0
2017-01-21T16:20:02.217Z,0
2017-01-21T16:21:13.619Z,0
2017-01-21T16:22:25.012Z,0
2017-01-21T16:23:36.407Z,0
2017-01-21T16:24:47.806Z,0
2017-01-21T16:25:59.256Z,0
2017-01-21T16:27:10.849Z,0
2017-01-21T16:28:22.251Z,0
2017-01-21T16:29:33.651Z,0
2017-01-21T16:30:45.039Z,0
2017-01-21T16:31:56.473Z,0
2017-01-21T16:33:07.874Z,0
2017-01-21T16:34:19.474Z,0
2017-01-21T16:35:31.072Z,0
2017-01-21T16:36:42.467Z,0
2017-01-21T16:37:53.912Z,0
2017-01-21T16:39:05.321Z,0
2017-01-21T16:40:16.747Z,0
2017-01-21T16:41:28.145Z,0
2017-01-21T16:42:39.543Z,0
2017-01-21T16:43:50.999Z,0
2017-01-21T16:45:02.610Z,0
2017-01-21T16:46:14.003Z,0
2017-01-21T16:47:25.406Z,0
2017-01-21T16:48:37.007Z,0
2017-01-21T16:49:48.659Z,0
2017-01-21T16:51:00.058Z,0
2017-01-21T16:52:11.455Z,0
2017-01-21T16:53:22.849Z,0
2017-01-21T16:54:34.249Z,0
2017-01-21T16:55:45.699Z,0